sensor_id;sensor_type;location;lat;lon;timestamp;temperature;humidity
6863;DHT22;3470;48.738;9.616;2023-05-16T00:00:24;7.80;99.90
6863;DHT22;3470;48.738;9.616;2023-05-16T00:02:50;7.80;99.90
6863;DHT22;3470;48.738;9.616;2023-05-16T00:05:16;7.90;99.90
6863;DHT22;3470;48.738;9.616;2023-05-16T00:07:42;7.90;99.90
6863;DHT22;3470;48.738;9.616;2023-05-16T00:10:09;8.00;99.90
6863;DHT22;3470;48.738;9.616;2023-05-16T00:12:36;7.90;99.90
6863;DHT22;3470;48.738;9.616;2023-05-16T00:15:02;8.00;99.90
6863;DHT22;3470;48.738;9.616;2023-05-16T00:17:29;8.10;99.90
6863;DHT22;3470;48.738;9.616;2023-05-16T00:19:55;8.10;99.90
6863;DHT22;3470;48.738;9.616;2023-05-16T00:22:23;8.20;99.90
6863;DHT22;3470;48.738;9.616;2023-05-16T00:24:49;8.20;99.90
6863;DHT22;3470;48.738;9.616;2023-05-16T00:27:15;8.10;99.90
6863;DHT22;3470;48.738;9.616;2023-05-16T00:29:40;8.00;99.90
6863;DHT22;3470;48.738;9.616;2023-05-16T00:32:06;7.70;99.90
6863;DHT22;3470;48.738;9.616;2023-05-16T00:34:33;7.50;99.90
6863;DHT22;3470;48.738;9.616;2023-05-16T00:36:59;7.30;99.90
6863;DHT22;3470;48.738;9.616;2023-05-16T00:39:25;7.30;99.90
6863;DHT22;3470;48.738;9.616;2023-05-16T00:41:51;7.30;99.90
6863;DHT22;3470;48.738;9.616;2023-05-16T00:44:16;7.30;99.90
6863;DHT22;3470;48.738;9.616;2023-05-16T00:46:42;7.30;99.90
6863;DHT22;3470;48.738;9.616;2023-05-16T00:49:08;7.30;99.90
6863;DHT22;3470;48.738;9.616;2023-05-16T00:51:35;7.30;99.90
6863;DHT22;3470;48.738;9.616;2023-05-16T00:54:02;7.30;99.90
6863;DHT22;3470;48.738;9.616;2023-05-16T00:56:28;7.40;99.90
6863;DHT22;3470;48.738;9.616;2023-05-16T00:58:54;7.40;99.90
6863;DHT22;3470;48.738;9.616;2023-05-16T01:01:22;7.50;99.90
6863;DHT22;3470;48.738;9.616;2023-05-16T01:03:49;7.40;99.90
6863;DHT22;3470;48.738;9.616;2023-05-16T01:06:14;7.40;99.90
6863;DHT22;3470;48.738;9.616;2023-05-16T01:08:40;7.40;99.90
6863;DHT22;3470;48.738;9.616;2023-05-16T01:11:27;7.40;99.90
6863;DHT22;3470;48.738;9.616;2023-05-16T01:19:42;7.40;99.90
6863;DHT22;3470;48.738;9.616;2023-05-16T01:22:11;7.30;99.90
6863;DHT22;3470;48.738;9.616;2023-05-16T01:27:29;7.10;99.90
6863;DHT22;3470;48.738;9.616;2023-05-16T01:29:56;7.10;99.90
6863;DHT22;3470;48.738;9.616;2023-05-16T01:32:21;7.00;99.90
6863;DHT22;3470;48.738;9.616;2023-05-16T01:34:49;7.10;99.90
6863;DHT22;3470;48.738;9.616;2023-05-16T01:37:34;7.00;99.90
6863;DHT22;3470;48.738;9.616;2023-05-16T01:40:07;7.10;99.90
6863;DHT22;3470;48.738;9.616;2023-05-16T01:42:36;7.20;99.90
6863;DHT22;3470;48.738;9.616;2023-05-16T01:45:14;7.10;99.90
6863;DHT22;3470;48.738;9.616;2023-05-16T01:47:44;7.10;99.90
6863;DHT22;3470;48.738;9.616;2023-05-16T01:50:20;7.10;99.90
6863;DHT22;3470;48.738;9.616;2023-05-16T01:52:57;7.00;99.90
6863;DHT22;3470;48.738;9.616;2023-05-16T01:58:03;6.90;99.90
6863;DHT22;3470;48.738;9.616;2023-05-16T02:00:29;6.90;99.90
6863;DHT22;3470;48.738;9.616;2023-05-16T02:02:56;6.90;99.90
6863;DHT22;3470;48.738;9.616;2023-05-16T02:05:21;6.90;99.90
6863;DHT22;3470;48.738;9.616;2023-05-16T02:07:47;6.90;99.90
6863;DHT22;3470;48.738;9.616;2023-05-16T02:10:13;7.00;99.90
6863;DHT22;3470;48.738;9.616;2023-05-16T02:12:39;6.90;99.90
6863;DHT22;3470;48.738;9.616;2023-05-16T02:15:05;6.90;99.90
6863;DHT22;3470;48.738;9.616;2023-05-16T02:17:31;6.90;99.90
6863;DHT22;3470;48.738;9.616;2023-05-16T02:19:56;6.80;99.90
6863;DHT22;3470;48.738;9.616;2023-05-16T02:22:22;6.70;99.90
6863;DHT22;3470;48.738;9.616;2023-05-16T02:24:48;6.80;99.90
6863;DHT22;3470;48.738;9.616;2023-05-16T02:27:13;6.80;99.90
6863;DHT22;3470;48.738;9.616;2023-05-16T02:29:39;6.80;99.90
6863;DHT22;3470;48.738;9.616;2023-05-16T02:32:05;6.90;99.90
6863;DHT22;3470;48.738;9.616;2023-05-16T02:34:30;6.90;99.90
6863;DHT22;3470;48.738;9.616;2023-05-16T02:36:56;7.10;99.90
6863;DHT22;3470;48.738;9.616;2023-05-16T02:39:21;7.20;99.90
6863;DHT22;3470;48.738;9.616;2023-05-16T02:41:47;7.20;99.90
6863;DHT22;3470;48.738;9.616;2023-05-16T02:44:12;7.10;99.90
6863;DHT22;3470;48.738;9.616;2023-05-16T02:46:38;7.10;99.90
6863;DHT22;3470;48.738;9.616;2023-05-16T02:49:04;7.10;99.90
6863;DHT22;3470;48.738;9.616;2023-05-16T02:51:30;7.10;99.90
6863;DHT22;3470;48.738;9.616;2023-05-16T02:53:55;7.10;99.90
6863;DHT22;3470;48.738;9.616;2023-05-16T02:56:21;7.20;99.90
6863;DHT22;3470;48.738;9.616;2023-05-16T02:58:50;7.20;99.90
6863;DHT22;3470;48.738;9.616;2023-05-16T03:01:16;7.20;99.90
6863;DHT22;3470;48.738;9.616;2023-05-16T03:03:42;7.30;99.90
6863;DHT22;3470;48.738;9.616;2023-05-16T03:06:07;7.40;99.90
6863;DHT22;3470;48.738;9.616;2023-05-16T03:08:33;7.50;99.90
6863;DHT22;3470;48.738;9.616;2023-05-16T03:10:59;7.50;99.90
6863;DHT22;3470;48.738;9.616;2023-05-16T03:13:25;7.60;99.90
6863;DHT22;3470;48.738;9.616;2023-05-16T03:15:51;7.70;99.90
6863;DHT22;3470;48.738;9.616;2023-05-16T03:18:17;7.70;99.90
6863;DHT22;3470;48.738;9.616;2023-05-16T03:20:42;7.80;99.90
6863;DHT22;3470;48.738;9.616;2023-05-16T03:23:08;7.90;99.90
6863;DHT22;3470;48.738;9.616;2023-05-16T03:25:34;7.80;99.90
6863;DHT22;3470;48.738;9.616;2023-05-16T03:28:01;7.80;99.90
6863;DHT22;3470;48.738;9.616;2023-05-16T03:30:26;7.80;99.90
6863;DHT22;3470;48.738;9.616;2023-05-16T03:32:52;7.90;99.90
6863;DHT22;3470;48.738;9.616;2023-05-16T03:35:17;7.90;99.90
6863;DHT22;3470;48.738;9.616;2023-05-16T03:37:43;8.00;99.90
6863;DHT22;3470;48.738;9.616;2023-05-16T03:40:09;8.00;99.90
6863;DHT22;3470;48.738;9.616;2023-05-16T03:42:35;8.00;99.90
6863;DHT22;3470;48.738;9.616;2023-05-16T03:45:01;8.00;99.90
6863;DHT22;3470;48.738;9.616;2023-05-16T03:47:27;8.00;99.90
6863;DHT22;3470;48.738;9.616;2023-05-16T03:49:55;8.00;99.90
6863;DHT22;3470;48.738;9.616;2023-05-16T03:52:21;8.00;99.90
6863;DHT22;3470;48.738;9.616;2023-05-16T03:54:46;8.10;99.90
6863;DHT22;3470;48.738;9.616;2023-05-16T03:57:12;8.10;99.90
6863;DHT22;3470;48.738;9.616;2023-05-16T03:59:38;8.20;99.90
6863;DHT22;3470;48.738;9.616;2023-05-16T04:02:04;8.20;99.90
6863;DHT22;3470;48.738;9.616;2023-05-16T04:04:30;8.20;99.90
6863;DHT22;3470;48.738;9.616;2023-05-16T04:06:55;8.20;99.90
6863;DHT22;3470;48.738;9.616;2023-05-16T04:09:21;8.10;99.90
6863;DHT22;3470;48.738;9.616;2023-05-16T04:11:46;8.00;99.90
6863;DHT22;3470;48.738;9.616;2023-05-16T04:14:15;8.10;99.90
6863;DHT22;3470;48.738;9.616;2023-05-16T04:16:41;8.10;99.90
6863;DHT22;3470;48.738;9.616;2023-05-16T04:19:06;8.20;99.90
6863;DHT22;3470;48.738;9.616;2023-05-16T04:21:32;8.40;99.90
6863;DHT22;3470;48.738;9.616;2023-05-16T04:23:58;8.50;99.90
6863;DHT22;3470;48.738;9.616;2023-05-16T04:26:23;8.50;99.90
6863;DHT22;3470;48.738;9.616;2023-05-16T04:28:50;8.50;99.90
6863;DHT22;3470;48.738;9.616;2023-05-16T04:31:15;8.50;99.90
6863;DHT22;3470;48.738;9.616;2023-05-16T04:33:41;8.50;99.90
6863;DHT22;3470;48.738;9.616;2023-05-16T04:36:07;8.60;99.90
6863;DHT22;3470;48.738;9.616;2023-05-16T04:38:33;8.70;99.90
6863;DHT22;3470;48.738;9.616;2023-05-16T04:40:58;8.90;99.90
6863;DHT22;3470;48.738;9.616;2023-05-16T04:43:25;8.90;99.90
6863;DHT22;3470;48.738;9.616;2023-05-16T04:45:51;8.90;99.90
6863;DHT22;3470;48.738;9.616;2023-05-16T04:48:18;9.00;99.90
6863;DHT22;3470;48.738;9.616;2023-05-16T04:50:43;9.10;99.90
6863;DHT22;3470;48.738;9.616;2023-05-16T04:53:09;9.30;99.90
6863;DHT22;3470;48.738;9.616;2023-05-16T04:55:35;9.30;99.90
6863;DHT22;3470;48.738;9.616;2023-05-16T04:58:00;9.30;99.90
6863;DHT22;3470;48.738;9.616;2023-05-16T05:00:26;9.40;99.90
6863;DHT22;3470;48.738;9.616;2023-05-16T05:02:51;9.40;99.90
6863;DHT22;3470;48.738;9.616;2023-05-16T05:05:17;9.50;99.90
6863;DHT22;3470;48.738;9.616;2023-05-16T05:07:42;9.60;99.90
6863;DHT22;3470;48.738;9.616;2023-05-16T05:10:09;9.70;99.90
6863;DHT22;3470;48.738;9.616;2023-05-16T05:12:36;9.80;99.90
6863;DHT22;3470;48.738;9.616;2023-05-16T05:15:01;10.00;99.90
6863;DHT22;3470;48.738;9.616;2023-05-16T05:17:28;10.20;99.90
6863;DHT22;3470;48.738;9.616;2023-05-16T05:19:54;10.30;99.90
6863;DHT22;3470;48.738;9.616;2023-05-16T05:22:22;10.40;99.90
6863;DHT22;3470;48.738;9.616;2023-05-16T05:24:47;10.50;99.90
6863;DHT22;3470;48.738;9.616;2023-05-16T05:27:13;10.60;99.90
6863;DHT22;3470;48.738;9.616;2023-05-16T05:29:39;10.70;99.90
6863;DHT22;3470;48.738;9.616;2023-05-16T05:32:05;10.60;99.90
6863;DHT22;3470;48.738;9.616;2023-05-16T05:34:30;10.60;99.90
6863;DHT22;3470;48.738;9.616;2023-05-16T05:36:56;10.70;99.90
6863;DHT22;3470;48.738;9.616;2023-05-16T05:39:22;10.80;99.90
6863;DHT22;3470;48.738;9.616;2023-05-16T05:41:48;11.00;99.90
6863;DHT22;3470;48.738;9.616;2023-05-16T05:44:14;11.10;99.90
6863;DHT22;3470;48.738;9.616;2023-05-16T05:46:39;11.40;99.90
6863;DHT22;3470;48.738;9.616;2023-05-16T05:49:05;11.70;99.90
6863;DHT22;3470;48.738;9.616;2023-05-16T05:51:31;11.90;99.90
6863;DHT22;3470;48.738;9.616;2023-05-16T05:53:57;12.20;99.90
6863;DHT22;3470;48.738;9.616;2023-05-16T05:56:25;12.40;99.90
6863;DHT22;3470;48.738;9.616;2023-05-16T05:58:50;12.50;99.90
6863;DHT22;3470;48.738;9.616;2023-05-16T06:01:16;12.50;99.90
6863;DHT22;3470;48.738;9.616;2023-05-16T06:03:42;12.50;99.90
6863;DHT22;3470;48.738;9.616;2023-05-16T06:06:08;12.60;99.90
6863;DHT22;3470;48.738;9.616;2023-05-16T06:08:34;12.60;99.90
6863;DHT22;3470;48.738;9.616;2023-05-16T06:10:59;12.50;99.90
6863;DHT22;3470;48.738;9.616;2023-05-16T06:13:25;12.40;99.90
6863;DHT22;3470;48.738;9.616;2023-05-16T06:15:52;12.20;99.90
6863;DHT22;3470;48.738;9.616;2023-05-16T06:18:18;12.00;99.90
6863;DHT22;3470;48.738;9.616;2023-05-16T06:20:43;11.90;99.90
6863;DHT22;3470;48.738;9.616;2023-05-16T06:23:12;11.90;99.90
6863;DHT22;3470;48.738;9.616;2023-05-16T06:25:38;11.80;99.90
6863;DHT22;3470;48.738;9.616;2023-05-16T06:28:03;11.80;99.90
6863;DHT22;3470;48.738;9.616;2023-05-16T06:30:29;11.80;99.90
6863;DHT22;3470;48.738;9.616;2023-05-16T06:32:55;11.70;99.90
6863;DHT22;3470;48.738;9.616;2023-05-16T06:35:20;11.80;99.90
6863;DHT22;3470;48.738;9.616;2023-05-16T06:37:49;11.80;99.90
6863;DHT22;3470;48.738;9.616;2023-05-16T06:40:14;11.80;99.90
6863;DHT22;3470;48.738;9.616;2023-05-16T06:42:40;11.80;99.90
6863;DHT22;3470;48.738;9.616;2023-05-16T06:45:06;12.00;99.90
6863;DHT22;3470;48.738;9.616;2023-05-16T06:47:32;12.10;99.90
6863;DHT22;3470;48.738;9.616;2023-05-16T06:49:57;12.30;99.90
6863;DHT22;3470;48.738;9.616;2023-05-16T06:52:23;12.50;99.90
6863;DHT22;3470;48.738;9.616;2023-05-16T06:54:49;12.60;99.90
6863;DHT22;3470;48.738;9.616;2023-05-16T06:57:14;12.80;99.90
6863;DHT22;3470;48.738;9.616;2023-05-16T06:59:41;13.00;99.90
6863;DHT22;3470;48.738;9.616;2023-05-16T07:02:07;13.10;99.90
6863;DHT22;3470;48.738;9.616;2023-05-16T07:04:32;13.10;99.90
6863;DHT22;3470;48.738;9.616;2023-05-16T07:07:00;13.20;99.90
6863;DHT22;3470;48.738;9.616;2023-05-16T07:09:26;13.20;99.90
6863;DHT22;3470;48.738;9.616;2023-05-16T07:11:52;13.10;99.90
6863;DHT22;3470;48.738;9.616;2023-05-16T07:14:17;13.00;99.90
6863;DHT22;3470;48.738;9.616;2023-05-16T07:16:43;12.90;99.90
6863;DHT22;3470;48.738;9.616;2023-05-16T07:19:08;12.80;99.90
6863;DHT22;3470;48.738;9.616;2023-05-16T07:21:34;12.80;99.90
6863;DHT22;3470;48.738;9.616;2023-05-16T07:24:00;12.70;99.90
6863;DHT22;3470;48.738;9.616;2023-05-16T07:26:25;12.70;99.90
6863;DHT22;3470;48.738;9.616;2023-05-16T07:28:51;12.70;99.90
6863;DHT22;3470;48.738;9.616;2023-05-16T07:31:17;12.70;99.90
6863;DHT22;3470;48.738;9.616;2023-05-16T07:33:43;12.80;99.90
6863;DHT22;3470;48.738;9.616;2023-05-16T07:36:09;12.80;99.90
6863;DHT22;3470;48.738;9.616;2023-05-16T07:38:35;12.90;99.90
6863;DHT22;3470;48.738;9.616;2023-05-16T07:41:01;13.00;99.90
6863;DHT22;3470;48.738;9.616;2023-05-16T07:43:27;12.90;99.90
6863;DHT22;3470;48.738;9.616;2023-05-16T07:45:53;12.90;99.90
6863;DHT22;3470;48.738;9.616;2023-05-16T07:48:18;13.00;99.90
6863;DHT22;3470;48.738;9.616;2023-05-16T07:50:44;13.00;99.90
6863;DHT22;3470;48.738;9.616;2023-05-16T07:53:09;13.00;99.90
6863;DHT22;3470;48.738;9.616;2023-05-16T07:55:35;13.00;99.90
6863;DHT22;3470;48.738;9.616;2023-05-16T07:58:01;13.10;99.90
6863;DHT22;3470;48.738;9.616;2023-05-16T08:00:27;13.10;99.90
6863;DHT22;3470;48.738;9.616;2023-05-16T08:02:52;13.10;99.90
6863;DHT22;3470;48.738;9.616;2023-05-16T08:05:18;13.10;99.90
6863;DHT22;3470;48.738;9.616;2023-05-16T08:07:43;13.00;99.90
6863;DHT22;3470;48.738;9.616;2023-05-16T08:10:09;12.90;99.90
6863;DHT22;3470;48.738;9.616;2023-05-16T08:12:35;12.80;99.90
6863;DHT22;3470;48.738;9.616;2023-05-16T08:15:01;12.80;99.90
6863;DHT22;3470;48.738;9.616;2023-05-16T08:17:27;12.80;99.90
6863;DHT22;3470;48.738;9.616;2023-05-16T08:19:52;12.70;99.90
6863;DHT22;3470;48.738;9.616;2023-05-16T08:22:18;12.70;99.90
6863;DHT22;3470;48.738;9.616;2023-05-16T08:24:44;12.80;99.90
6863;DHT22;3470;48.738;9.616;2023-05-16T08:27:09;12.80;99.90
6863;DHT22;3470;48.738;9.616;2023-05-16T08:29:36;12.70;99.90
6863;DHT22;3470;48.738;9.616;2023-05-16T08:32:01;12.70;99.90
6863;DHT22;3470;48.738;9.616;2023-05-16T08:34:30;12.60;99.90
6863;DHT22;3470;48.738;9.616;2023-05-16T08:36:56;12.70;99.90
6863;DHT22;3470;48.738;9.616;2023-05-16T08:39:21;12.70;99.90
6863;DHT22;3470;48.738;9.616;2023-05-16T08:41:47;12.50;99.90
6863;DHT22;3470;48.738;9.616;2023-05-16T08:44:13;12.50;99.90
6863;DHT22;3470;48.738;9.616;2023-05-16T08:46:51;12.50;99.90
6863;DHT22;3470;48.738;9.616;2023-05-16T08:49:17;12.40;99.90
6863;DHT22;3470;48.738;9.616;2023-05-16T08:51:46;12.40;99.90
6863;DHT22;3470;48.738;9.616;2023-05-16T08:54:13;12.30;99.90
6863;DHT22;3470;48.738;9.616;2023-05-16T08:56:41;12.20;99.90
6863;DHT22;3470;48.738;9.616;2023-05-16T08:59:07;12.10;99.90
6863;DHT22;3470;48.738;9.616;2023-05-16T09:01:33;12.10;99.90
6863;DHT22;3470;48.738;9.616;2023-05-16T09:04:00;12.10;99.90
6863;DHT22;3470;48.738;9.616;2023-05-16T09:06:26;12.10;99.90
6863;DHT22;3470;48.738;9.616;2023-05-16T09:08:53;12.20;99.90
6863;DHT22;3470;48.738;9.616;2023-05-16T09:11:18;12.30;99.90
6863;DHT22;3470;48.738;9.616;2023-05-16T09:13:44;12.30;99.90
6863;DHT22;3470;48.738;9.616;2023-05-16T09:16:11;12.40;99.90
6863;DHT22;3470;48.738;9.616;2023-05-16T09:18:38;12.30;99.90
6863;DHT22;3470;48.738;9.616;2023-05-16T09:21:05;12.30;99.90
6863;DHT22;3470;48.738;9.616;2023-05-16T09:23:32;12.20;99.90
6863;DHT22;3470;48.738;9.616;2023-05-16T09:25:58;12.20;99.90
6863;DHT22;3470;48.738;9.616;2023-05-16T09:28:27;12.20;99.90
6863;DHT22;3470;48.738;9.616;2023-05-16T09:30:53;12.30;99.90
6863;DHT22;3470;48.738;9.616;2023-05-16T09:33:22;12.30;99.90
6863;DHT22;3470;48.738;9.616;2023-05-16T09:35:58;12.40;99.90
6863;DHT22;3470;48.738;9.616;2023-05-16T09:38:25;12.50;99.90
6863;DHT22;3470;48.738;9.616;2023-05-16T09:40:52;12.60;99.90
6863;DHT22;3470;48.738;9.616;2023-05-16T09:43:22;12.60;99.90
6863;DHT22;3470;48.738;9.616;2023-05-16T09:45:48;12.80;99.90
6863;DHT22;3470;48.738;9.616;2023-05-16T09:48:14;12.80;99.90
6863;DHT22;3470;48.738;9.616;2023-05-16T09:50:46;12.90;99.90
6863;DHT22;3470;48.738;9.616;2023-05-16T09:53:13;13.00;99.90
6863;DHT22;3470;48.738;9.616;2023-05-16T09:55:39;13.00;99.90
6863;DHT22;3470;48.738;9.616;2023-05-16T09:58:04;12.90;99.90
6863;DHT22;3470;48.738;9.616;2023-05-16T10:00:32;12.80;99.90
6863;DHT22;3470;48.738;9.616;2023-05-16T10:02:59;12.80;99.90
6863;DHT22;3470;48.738;9.616;2023-05-16T10:05:27;12.90;99.90
6863;DHT22;3470;48.738;9.616;2023-05-16T10:07:57;12.90;99.90
6863;DHT22;3470;48.738;9.616;2023-05-16T10:10:23;13.00;99.90
6863;DHT22;3470;48.738;9.616;2023-05-16T10:12:50;13.10;99.90
6863;DHT22;3470;48.738;9.616;2023-05-16T10:15:16;13.20;99.90
6863;DHT22;3470;48.738;9.616;2023-05-16T10:17:44;13.30;99.90
6863;DHT22;3470;48.738;9.616;2023-05-16T10:20:14;13.30;99.90
6863;DHT22;3470;48.738;9.616;2023-05-16T10:22:42;13.40;99.90
6863;DHT22;3470;48.738;9.616;2023-05-16T10:25:16;13.50;99.90
6863;DHT22;3470;48.738;9.616;2023-05-16T10:27:45;13.50;99.90
6863;DHT22;3470;48.738;9.616;2023-05-16T10:30:12;13.40;99.90
6863;DHT22;3470;48.738;9.616;2023-05-16T10:32:38;13.50;99.90
6863;DHT22;3470;48.738;9.616;2023-05-16T10:35:04;13.70;99.90
6863;DHT22;3470;48.738;9.616;2023-05-16T10:37:31;13.60;99.90
6863;DHT22;3470;48.738;9.616;2023-05-16T10:40:00;13.60;99.90
6863;DHT22;3470;48.738;9.616;2023-05-16T10:42:26;13.50;99.90
6863;DHT22;3470;48.738;9.616;2023-05-16T10:44:54;13.50;99.90
6863;DHT22;3470;48.738;9.616;2023-05-16T10:47:23;13.50;99.90
6863;DHT22;3470;48.738;9.616;2023-05-16T10:49:48;13.70;99.90
6863;DHT22;3470;48.738;9.616;2023-05-16T10:52:14;13.90;99.90
6863;DHT22;3470;48.738;9.616;2023-05-16T10:54:48;14.10;99.90
6863;DHT22;3470;48.738;9.616;2023-05-16T10:57:18;14.20;99.90
6863;DHT22;3470;48.738;9.616;2023-05-16T10:59:48;14.30;99.90
6863;DHT22;3470;48.738;9.616;2023-05-16T11:04:57;14.30;99.90
6863;DHT22;3470;48.738;9.616;2023-05-16T11:07:34;14.40;99.90
6863;DHT22;3470;48.738;9.616;2023-05-16T11:10:14;14.40;99.90
6863;DHT22;3470;48.738;9.616;2023-05-16T11:12:50;14.50;99.90
6863;DHT22;3470;48.738;9.616;2023-05-16T11:15:26;14.60;99.90
6863;DHT22;3470;48.738;9.616;2023-05-16T11:18:17;14.60;99.90
6863;DHT22;3470;48.738;9.616;2023-05-16T11:20:43;14.50;99.90
6863;DHT22;3470;48.738;9.616;2023-05-16T11:25:55;14.70;99.90
6863;DHT22;3470;48.738;9.616;2023-05-16T11:28:21;14.90;99.90
6863;DHT22;3470;48.738;9.616;2023-05-16T11:30:50;14.90;99.90
6863;DHT22;3470;48.738;9.616;2023-05-16T11:33:17;15.00;99.90
6863;DHT22;3470;48.738;9.616;2023-05-16T11:35:43;15.70;99.90
6863;DHT22;3470;48.738;9.616;2023-05-16T11:38:23;16.30;99.90
6863;DHT22;3470;48.738;9.616;2023-05-16T11:40:49;16.90;99.90
6863;DHT22;3470;48.738;9.616;2023-05-16T11:43:17;17.20;99.90
6863;DHT22;3470;48.738;9.616;2023-05-16T11:45:43;17.40;99.90
6863;DHT22;3470;48.738;9.616;2023-05-16T11:48:09;17.30;99.90
6863;DHT22;3470;48.738;9.616;2023-05-16T11:50:35;16.80;99.90
6863;DHT22;3470;48.738;9.616;2023-05-16T11:53:01;16.30;99.90
6863;DHT22;3470;48.738;9.616;2023-05-16T11:55:28;16.00;99.90
6863;DHT22;3470;48.738;9.616;2023-05-16T11:57:58;15.70;99.90
6863;DHT22;3470;48.738;9.616;2023-05-16T12:00:26;15.40;99.90
6863;DHT22;3470;48.738;9.616;2023-05-16T12:02:53;15.30;99.90
6863;DHT22;3470;48.738;9.616;2023-05-16T12:05:20;15.00;99.90
6863;DHT22;3470;48.738;9.616;2023-05-16T12:07:50;14.60;99.90
6863;DHT22;3470;48.738;9.616;2023-05-16T12:10:18;14.80;99.90
6863;DHT22;3470;48.738;9.616;2023-05-16T12:12:47;14.90;99.90
6863;DHT22;3470;48.738;9.616;2023-05-16T12:15:13;14.90;99.90
6863;DHT22;3470;48.738;9.616;2023-05-16T12:17:40;14.90;99.90
6863;DHT22;3470;48.738;9.616;2023-05-16T12:20:08;15.10;99.90
6863;DHT22;3470;48.738;9.616;2023-05-16T12:22:45;15.10;99.90
6863;DHT22;3470;48.738;9.616;2023-05-16T12:25:25;15.20;99.90
6863;DHT22;3470;48.738;9.616;2023-05-16T12:27:53;15.10;99.90
6863;DHT22;3470;48.738;9.616;2023-05-16T12:30:21;15.00;99.90
6863;DHT22;3470;48.738;9.616;2023-05-16T12:35:30;15.00;99.90
6863;DHT22;3470;48.738;9.616;2023-05-16T12:37:56;14.70;99.90
6863;DHT22;3470;48.738;9.616;2023-05-16T12:40:22;14.60;99.90
6863;DHT22;3470;48.738;9.616;2023-05-16T12:42:52;14.40;99.90
6863;DHT22;3470;48.738;9.616;2023-05-16T12:45:17;14.40;99.90
6863;DHT22;3470;48.738;9.616;2023-05-16T12:47:44;14.40;99.90
6863;DHT22;3470;48.738;9.616;2023-05-16T12:50:13;14.40;99.90
6863;DHT22;3470;48.738;9.616;2023-05-16T12:52:47;14.30;99.90
6863;DHT22;3470;48.738;9.616;2023-05-16T12:55:17;14.40;99.90
6863;DHT22;3470;48.738;9.616;2023-05-16T12:57:43;14.50;99.90
6863;DHT22;3470;48.738;9.616;2023-05-16T13:00:13;14.60;99.90
6863;DHT22;3470;48.738;9.616;2023-05-16T13:02:40;14.80;99.90
6863;DHT22;3470;48.738;9.616;2023-05-16T13:05:06;14.80;99.90
6863;DHT22;3470;48.738;9.616;2023-05-16T13:07:32;14.70;99.90
6863;DHT22;3470;48.738;9.616;2023-05-16T13:09:58;14.50;99.90
6863;DHT22;3470;48.738;9.616;2023-05-16T13:12:24;14.20;99.90
6863;DHT22;3470;48.738;9.616;2023-05-16T13:14:52;13.90;99.90
6863;DHT22;3470;48.738;9.616;2023-05-16T13:17:18;13.70;99.90
6863;DHT22;3470;48.738;9.616;2023-05-16T13:19:48;13.40;99.90
6863;DHT22;3470;48.738;9.616;2023-05-16T13:22:13;13.00;99.90
6863;DHT22;3470;48.738;9.616;2023-05-16T13:24:39;12.70;99.90
6863;DHT22;3470;48.738;9.616;2023-05-16T13:27:05;12.50;99.90
6863;DHT22;3470;48.738;9.616;2023-05-16T13:29:31;12.40;99.90
6863;DHT22;3470;48.738;9.616;2023-05-16T13:31:56;12.30;99.90
6863;DHT22;3470;48.738;9.616;2023-05-16T13:34:25;12.20;99.90
6863;DHT22;3470;48.738;9.616;2023-05-16T13:36:50;12.20;99.90
6863;DHT22;3470;48.738;9.616;2023-05-16T13:39:16;12.20;99.90
6863;DHT22;3470;48.738;9.616;2023-05-16T13:41:42;12.20;99.90
6863;DHT22;3470;48.738;9.616;2023-05-16T13:44:08;12.30;99.90
6863;DHT22;3470;48.738;9.616;2023-05-16T13:46:34;12.50;99.90
6863;DHT22;3470;48.738;9.616;2023-05-16T13:49:00;12.60;99.90
6863;DHT22;3470;48.738;9.616;2023-05-16T13:51:25;12.80;99.90
6863;DHT22;3470;48.738;9.616;2023-05-16T13:53:51;13.00;99.90
6863;DHT22;3470;48.738;9.616;2023-05-16T13:56:17;13.40;99.90
6863;DHT22;3470;48.738;9.616;2023-05-16T13:58:42;13.70;99.90
6863;DHT22;3470;48.738;9.616;2023-05-16T14:01:08;13.80;99.90
6863;DHT22;3470;48.738;9.616;2023-05-16T14:03:33;13.90;99.90
6863;DHT22;3470;48.738;9.616;2023-05-16T14:06:01;13.90;99.90
6863;DHT22;3470;48.738;9.616;2023-05-16T14:08:26;13.80;99.90
6863;DHT22;3470;48.738;9.616;2023-05-16T14:10:52;13.90;99.90
6863;DHT22;3470;48.738;9.616;2023-05-16T14:13:18;13.90;99.90
6863;DHT22;3470;48.738;9.616;2023-05-16T14:15:43;13.90;99.90
6863;DHT22;3470;48.738;9.616;2023-05-16T14:18:09;13.80;99.90
6863;DHT22;3470;48.738;9.616;2023-05-16T14:20:35;13.60;99.90
6863;DHT22;3470;48.738;9.616;2023-05-16T14:23:00;13.60;99.90
6863;DHT22;3470;48.738;9.616;2023-05-16T14:25:26;13.40;99.90
6863;DHT22;3470;48.738;9.616;2023-05-16T14:27:51;13.30;99.90
6863;DHT22;3470;48.738;9.616;2023-05-16T14:30:17;13.20;99.90
6863;DHT22;3470;48.738;9.616;2023-05-16T14:32:42;12.80;99.90
6863;DHT22;3470;48.738;9.616;2023-05-16T14:35:09;12.50;99.90
6863;DHT22;3470;48.738;9.616;2023-05-16T14:37:34;12.30;99.90
6863;DHT22;3470;48.738;9.616;2023-05-16T14:40:00;12.20;99.90
6863;DHT22;3470;48.738;9.616;2023-05-16T14:42:26;12.10;99.90
6863;DHT22;3470;48.738;9.616;2023-05-16T14:44:51;12.10;99.90
6863;DHT22;3470;48.738;9.616;2023-05-16T14:47:17;12.20;99.90
6863;DHT22;3470;48.738;9.616;2023-05-16T14:49:43;12.30;99.90
6863;DHT22;3470;48.738;9.616;2023-05-16T14:52:08;12.30;99.90
6863;DHT22;3470;48.738;9.616;2023-05-16T14:54:34;12.30;99.90
6863;DHT22;3470;48.738;9.616;2023-05-16T14:57:01;12.30;99.90
6863;DHT22;3470;48.738;9.616;2023-05-16T14:59:28;12.40;99.90
6863;DHT22;3470;48.738;9.616;2023-05-16T15:01:54;12.60;99.90
6863;DHT22;3470;48.738;9.616;2023-05-16T15:04:20;12.60;99.90
6863;DHT22;3470;48.738;9.616;2023-05-16T15:06:45;12.70;99.90
6863;DHT22;3470;48.738;9.616;2023-05-16T15:09:11;12.90;99.90
6863;DHT22;3470;48.738;9.616;2023-05-16T15:11:36;13.00;99.90
6863;DHT22;3470;48.738;9.616;2023-05-16T15:14:02;13.10;99.90
6863;DHT22;3470;48.738;9.616;2023-05-16T15:16:29;13.20;99.90
6863;DHT22;3470;48.738;9.616;2023-05-16T15:18:55;13.40;99.90
6863;DHT22;3470;48.738;9.616;2023-05-16T15:21:21;13.40;99.90
6863;DHT22;3470;48.738;9.616;2023-05-16T15:23:47;13.50;99.90
6863;DHT22;3470;48.738;9.616;2023-05-16T15:26:15;13.50;99.90
6863;DHT22;3470;48.738;9.616;2023-05-16T15:28:41;13.30;99.90
6863;DHT22;3470;48.738;9.616;2023-05-16T15:31:06;13.20;99.90
6863;DHT22;3470;48.738;9.616;2023-05-16T15:33:32;12.90;99.90
6863;DHT22;3470;48.738;9.616;2023-05-16T15:35:57;12.60;99.90
6863;DHT22;3470;48.738;9.616;2023-05-16T15:38:23;12.50;99.90
6863;DHT22;3470;48.738;9.616;2023-05-16T15:40:49;12.30;99.90
6863;DHT22;3470;48.738;9.616;2023-05-16T15:43:14;12.10;99.90
6863;DHT22;3470;48.738;9.616;2023-05-16T15:45:42;12.10;99.90
6863;DHT22;3470;48.738;9.616;2023-05-16T15:48:08;12.00;99.90
6863;DHT22;3470;48.738;9.616;2023-05-16T15:50:34;12.10;99.90
6863;DHT22;3470;48.738;9.616;2023-05-16T15:52:59;12.00;99.90
6863;DHT22;3470;48.738;9.616;2023-05-16T15:55:25;12.00;99.90
6863;DHT22;3470;48.738;9.616;2023-05-16T15:57:51;12.10;99.90
6863;DHT22;3470;48.738;9.616;2023-05-16T16:00:18;12.10;99.90
6863;DHT22;3470;48.738;9.616;2023-05-16T16:02:43;12.20;99.90
6863;DHT22;3470;48.738;9.616;2023-05-16T16:05:10;12.20;99.90
6863;DHT22;3470;48.738;9.616;2023-05-16T16:07:36;12.20;99.90
6863;DHT22;3470;48.738;9.616;2023-05-16T16:10:01;12.30;99.90
6863;DHT22;3470;48.738;9.616;2023-05-16T16:12:28;12.20;99.90
6863;DHT22;3470;48.738;9.616;2023-05-16T16:14:54;12.10;99.90
6863;DHT22;3470;48.738;9.616;2023-05-16T16:17:19;12.10;99.90
6863;DHT22;3470;48.738;9.616;2023-05-16T16:19:45;11.90;99.90
6863;DHT22;3470;48.738;9.616;2023-05-16T16:22:11;11.90;99.90